createdAt,value
2022-09-15T00:00:27.914Z,1.70
2022-09-15T00:02:54.344Z,1.80
2022-09-15T00:05:20.854Z,1.70
2022-09-15T00:07:47.619Z,1.60
2022-09-15T00:10:14.094Z,1.80
2022-09-15T00:12:40.536Z,1.70
2022-09-15T00:15:07.790Z,1.88
2022-09-15T00:17:34.251Z,1.85
2022-09-15T00:20:00.751Z,2.13
2022-09-15T00:22:28.087Z,2.00
2022-09-15T00:24:54.474Z,2.00
2022-09-15T00:27:20.897Z,2.00
2022-09-15T00:29:47.362Z,2.20
2022-09-15T00:32:14.817Z,2.13
2022-09-15T00:34:41.309Z,2.00
2022-09-15T00:37:07.726Z,2.10
2022-09-15T00:39:34.171Z,2.20
2022-09-15T00:42:00.563Z,2.20
2022-09-15T00:44:36.104Z,2.42
2022-09-15T00:47:18.875Z,2.33
2022-09-15T00:49:49.075Z,2.40
2022-09-15T00:52:42.901Z,2.17
2022-09-15T00:55:15.909Z,2.72
2022-09-15T00:57:49.695Z,2.50
2022-09-15T01:00:20.112Z,2.53
2022-09-15T01:02:48.315Z,2.42
2022-09-15T01:05:22.864Z,2.38
2022-09-15T01:07:56.304Z,2.70
2022-09-15T01:10:29.207Z,2.30
2022-09-15T01:13:02.784Z,2.00
2022-09-15T01:16:07.989Z,2.38
2022-09-15T01:19:07.167Z,2.08
2022-09-15T01:21:47.474Z,2.20
2022-09-15T01:24:33.901Z,2.10
2022-09-15T01:27:40.420Z,1.90
2022-09-15T01:30:12.346Z,2.10
2022-09-15T01:33:04.125Z,1.92
2022-09-15T01:35:33.806Z,2.20
2022-09-15T01:38:22.915Z,2.00
2022-09-15T01:40:59.974Z,2.10
2022-09-15T01:43:29.708Z,2.22
2022-09-15T01:45:57.565Z,2.10
2022-09-15T01:48:27.339Z,2.05
2022-09-15T01:50:58.907Z,1.95
2022-09-15T01:53:26.502Z,2.10
2022-09-15T01:56:02.684Z,2.38
2022-09-15T01:58:29.161Z,2.33
2022-09-15T02:01:19.992Z,2.40
2022-09-15T02:03:55.366Z,2.30
2022-09-15T02:06:39.661Z,2.60
2022-09-15T02:09:13.695Z,2.25
2022-09-15T02:12:19.896Z,2.47
2022-09-15T02:14:57.395Z,2.55
2022-09-15T02:17:29.097Z,2.95
2022-09-15T02:20:15.502Z,2.70
2022-09-15T02:22:48.736Z,2.88
2022-09-15T02:25:22.725Z,3.00
2022-09-15T02:27:53.757Z,3.63
2022-09-15T02:30:21.372Z,3.65
2022-09-15T02:32:56.046Z,4.57
2022-09-15T02:35:25.911Z,5.10
2022-09-15T02:37:53.181Z,5.03
2022-09-15T02:40:19.987Z,5.57
2022-09-15T02:42:55.854Z,6.00
2022-09-15T02:45:24.101Z,6.47
2022-09-15T02:47:50.821Z,6.90
2022-09-15T02:50:18.750Z,8.25
2022-09-15T02:52:45.124Z,7.72
2022-09-15T02:55:11.852Z,8.43
2022-09-15T02:57:38.381Z,8.33
2022-09-15T03:00:12.978Z,8.00
2022-09-15T03:02:44.633Z,7.25
2022-09-15T03:05:12.804Z,5.90
2022-09-15T03:07:39.271Z,6.32
2022-09-15T03:10:07.745Z,3.93
2022-09-15T03:12:42.262Z,3.35
2022-09-15T03:15:11.053Z,3.65
2022-09-15T03:17:39.351Z,4.30
2022-09-15T03:20:07.893Z,4.82
2022-09-15T03:22:34.982Z,5.13
2022-09-15T03:25:01.486Z,5.30
2022-09-15T03:27:27.909Z,5.82
2022-09-15T03:29:54.285Z,5.90
2022-09-15T03:32:20.730Z,5.20
2022-09-15T03:34:47.156Z,5.63
2022-09-15T03:37:13.654Z,5.53
2022-09-15T03:39:40.020Z,5.40
2022-09-15T03:42:06.432Z,5.22
2022-09-15T03:44:33.066Z,4.70
2022-09-15T03:46:59.479Z,4.77
2022-09-15T03:49:25.915Z,4.55
2022-09-15T03:51:52.331Z,4.78
2022-09-15T03:54:19.528Z,5.00
2022-09-15T03:56:49.054Z,5.18
2022-09-15T03:59:16.366Z,4.27
2022-09-15T04:01:43.418Z,3.65
2022-09-15T04:04:10.536Z,4.05
2022-09-15T04:06:37.554Z,4.20
2022-09-15T04:09:05.063Z,4.35
2022-09-15T04:11:31.955Z,4.90
2022-09-15T04:13:58.370Z,4.70
2022-09-15T04:16:27.748Z,4.15
2022-09-15T04:18:55.241Z,4.70
2022-09-15T04:21:24.353Z,5.00
2022-09-15T04:23:51.890Z,5.63
2022-09-15T04:26:31.295Z,6.10
2022-09-15T04:29:03.007Z,5.55
2022-09-15T04:31:30.684Z,5.30
2022-09-15T04:33:57.229Z,5.15
2022-09-15T04:36:26.377Z,5.23
2022-09-15T04:38:53.245Z,5.38
2022-09-15T04:41:20.809Z,5.35
2022-09-15T04:43:47.260Z,5.28
2022-09-15T04:46:15.215Z,5.20
2022-09-15T04:48:42.346Z,5.10
2022-09-15T04:51:11.778Z,4.90
2022-09-15T04:53:38.272Z,4.75
2022-09-15T04:56:07.124Z,4.68
2022-09-15T04:58:38.813Z,4.65
2022-09-15T05:01:20.145Z,4.90
2022-09-15T05:03:47.547Z,5.30
2022-09-15T05:06:16.449Z,5.68
2022-09-15T05:08:43.082Z,5.70
2022-09-15T05:11:12.085Z,5.10
2022-09-15T05:13:39.732Z,4.87
2022-09-15T05:16:13.308Z,4.70
2022-09-15T05:18:41.167Z,4.60
2022-09-15T05:21:09.881Z,5.32
2022-09-15T05:23:37.472Z,5.20
2022-09-15T05:26:11.703Z,4.93
2022-09-15T05:28:38.761Z,5.15
2022-09-15T05:31:15.309Z,5.10
2022-09-15T05:33:41.722Z,4.70
2022-09-15T05:36:08.194Z,5.03
2022-09-15T05:38:34.587Z,5.60
2022-09-15T05:41:07.207Z,5.40
2022-09-15T05:43:35.613Z,5.70
2022-09-15T05:46:03.123Z,5.72
2022-09-15T05:48:30.207Z,5.95
2022-09-15T05:50:57.463Z,6.00
2022-09-15T05:53:24.953Z,5.45
2022-09-15T05:55:56.071Z,5.95
2022-09-15T05:58:23.364Z,5.40
2022-09-15T06:00:50.722Z,5.72
2022-09-15T06:03:17.373Z,8.63
2022-09-15T06:05:43.917Z,12.93
2022-09-15T06:08:10.945Z,7.15
2022-09-15T06:10:37.436Z,5.43
2022-09-15T06:13:04.124Z,5.20
2022-09-15T06:15:31.131Z,4.77
2022-09-15T06:17:57.745Z,6.35
2022-09-15T06:20:24.705Z,8.85
2022-09-15T06:22:51.257Z,5.30
2022-09-15T06:25:17.869Z,4.78
2022-09-15T06:27:44.425Z,5.00
2022-09-15T06:30:11.567Z,4.30
2022-09-15T06:32:38.198Z,4.57
2022-09-15T06:35:07.107Z,3.95
2022-09-15T06:37:34.582Z,3.83
2022-09-15T06:40:01.922Z,3.73
2022-09-15T06:42:28.411Z,3.90
2022-09-15T06:44:54.858Z,3.50
2022-09-15T06:47:21.275Z,3.13
2022-09-15T06:49:47.956Z,3.70
2022-09-15T06:52:14.373Z,3.10
2022-09-15T06:54:40.839Z,3.20
2022-09-15T06:57:07.276Z,3.35
2022-09-15T06:59:33.673Z,3.17
2022-09-15T07:02:04.202Z,6.43
2022-09-15T07:04:31.742Z,4.80
2022-09-15T07:06:58.102Z,3.13
2022-09-15T07:09:24.550Z,3.00
2022-09-15T07:11:51.147Z,2.88
2022-09-15T07:14:17.629Z,2.60
2022-09-15T07:16:44.145Z,3.00
2022-09-15T07:19:10.791Z,2.90
2022-09-15T07:21:37.692Z,4.05
2022-09-15T07:24:07.227Z,3.28
2022-09-15T07:26:34.627Z,3.10
2022-09-15T07:29:03.730Z,2.80
2022-09-15T07:31:32.155Z,2.90
2022-09-15T07:33:59.125Z,3.10
2022-09-15T07:36:25.716Z,4.07
2022-09-15T07:38:52.351Z,3.00
2022-09-15T07:41:21.928Z,3.10
2022-09-15T07:43:50.548Z,2.92
2022-09-15T07:46:18.130Z,3.05
2022-09-15T07:48:45.836Z,2.80
2022-09-15T07:51:13.407Z,2.53
2022-09-15T07:53:40.135Z,3.40
2022-09-15T07:56:07.013Z,3.40
2022-09-15T07:58:34.082Z,2.90
2022-09-15T08:01:11.212Z,2.90
2022-09-15T08:03:42.780Z,2.90
2022-09-15T08:06:10.691Z,2.80
2022-09-15T08:08:41.366Z,2.85
2022-09-15T08:11:09.521Z,2.75
2022-09-15T08:13:36.631Z,3.53
2022-09-15T08:16:12.537Z,3.88
2022-09-15T08:18:39.846Z,3.70
2022-09-15T08:21:07.414Z,4.63
2022-09-15T08:23:34.041Z,4.47
2022-09-15T08:26:00.453Z,4.88
2022-09-15T08:28:27.146Z,4.28
2022-09-15T08:31:01.275Z,4.60
2022-09-15T08:33:28.307Z,4.50
2022-09-15T08:36:00.079Z,4.30
2022-09-15T08:38:26.526Z,4.93
2022-09-15T08:40:59.157Z,4.78
2022-09-15T08:43:29.238Z,4.80
2022-09-15T08:46:00.514Z,5.10
2022-09-15T08:48:35.259Z,5.95
2022-09-15T08:51:06.393Z,5.47
2022-09-15T08:53:37.765Z,5.13
2022-09-15T08:56:14.545Z,5.20
2022-09-15T08:58:41.090Z,4.82
2022-09-15T09:01:32.372Z,5.18
2022-09-15T09:04:20.568Z,5.22
2022-09-15T09:06:59.465Z,5.32
2022-09-15T09:09:49.853Z,5.60
2022-09-15T09:12:41.167Z,5.10
2022-09-15T09:15:22.572Z,6.07
2022-09-15T09:18:05.668Z,12.80
2022-09-15T09:20:37.962Z,6.03
2022-09-15T09:23:11.052Z,6.83
2022-09-15T09:25:38.282Z,6.13
2022-09-15T09:28:07.771Z,7.30
2022-09-15T09:30:36.183Z,7.40
2022-09-15T09:33:15.194Z,7.40
2022-09-15T09:35:48.622Z,6.70
2022-09-15T09:38:20.868Z,7.28
2022-09-15T09:40:48.098Z,6.88
2022-09-15T09:43:15.356Z,7.97
2022-09-15T09:45:41.807Z,7.53
2022-09-15T09:48:20.180Z,7.30
2022-09-15T09:50:47.398Z,8.52
2022-09-15T09:53:20.401Z,7.28
2022-09-15T09:55:47.054Z,7.55
2022-09-15T09:58:19.277Z,7.07
2022-09-15T10:00:46.029Z,6.47
2022-09-15T10:03:23.867Z,7.07
2022-09-15T10:06:06.908Z,6.90
2022-09-15T10:08:36.341Z,6.50
2022-09-15T10:11:06.796Z,6.38
2022-09-15T10:13:49.416Z,6.53
2022-09-15T10:16:19.342Z,6.78
2022-09-15T10:18:54.021Z,6.15
2022-09-15T10:21:25.040Z,8.18
2022-09-15T10:23:51.993Z,6.95
2022-09-15T10:26:34.501Z,13.50
2022-09-15T10:29:12.569Z,8.65
2022-09-15T10:31:40.167Z,11.35
2022-09-15T10:34:30.285Z,10.02
2022-09-15T10:37:36.016Z,8.68
2022-09-15T10:40:35.529Z,7.67
2022-09-15T10:43:41.432Z,8.50
2022-09-15T10:46:20.446Z,8.45
2022-09-15T10:49:31.926Z,9.23
2022-09-15T10:52:22.329Z,8.82
2022-09-15T10:54:57.901Z,9.17
2022-09-15T10:58:00.634Z,9.13
2022-09-15T11:01:00.026Z,8.25
2022-09-15T11:03:46.569Z,8.35
2022-09-15T11:06:24.065Z,8.07
2022-09-15T11:09:11.878Z,9.43
2022-09-15T11:12:01.220Z,8.13
2022-09-15T11:14:52.587Z,8.93
2022-09-15T11:17:57.254Z,6.90
2022-09-15T11:20:33.166Z,6.70
2022-09-15T11:23:17.742Z,6.73
2022-09-15T11:25:48.811Z,7.13
2022-09-15T11:28:21.610Z,6.53
2022-09-15T11:31:14.683Z,6.90
2022-09-15T11:34:01.605Z,6.97
2022-09-15T11:36:52.193Z,6.67
2022-09-15T11:39:30.514Z,6.30
2022-09-15T11:42:22.375Z,6.55
2022-09-15T11:44:49.802Z,6.28
2022-09-15T11:47:44.665Z,6.57
2022-09-15T11:50:12.922Z,6.00
2022-09-15T11:52:57.975Z,6.40
2022-09-15T11:55:33.244Z,5.35
2022-09-15T11:58:19.698Z,5.38
2022-09-15T12:00:55.352Z,4.22
2022-09-15T12:03:29.197Z,3.80
2022-09-15T12:06:06.900Z,4.10
2022-09-15T12:08:42.190Z,3.80
2022-09-15T12:11:17.597Z,3.50
2022-09-15T12:13:45.586Z,3.38
2022-09-15T12:16:12.909Z,3.47
2022-09-15T12:18:48.619Z,3.80
2022-09-15T12:21:34.861Z,4.00
2022-09-15T12:24:30.478Z,4.00
2022-09-15T12:30:40.398Z,3.60
2022-09-15T12:33:43.274Z,3.47
2022-09-15T12:36:37.440Z,4.00
2022-09-15T12:39:25.481Z,4.03
2022-09-15T12:41:53.358Z,3.70
2022-09-15T12:44:44.671Z,3.50
2022-09-15T12:47:38.572Z,3.88
2022-09-15T12:50:22.025Z,3.67
2022-09-15T12:52:58.204Z,4.10
2022-09-15T12:55:27.732Z,3.92
2022-09-15T12:58:00.216Z,4.30
2022-09-15T13:00:28.714Z,4.20
2022-09-15T13:02:55.985Z,4.28
2022-09-15T13:05:46.095Z,4.30
2022-09-15T13:08:18.957Z,4.35
2022-09-15T13:11:02.986Z,4.20
2022-09-15T13:13:45.253Z,3.80
2022-09-15T13:16:21.743Z,3.95
2022-09-15T13:18:54.752Z,3.47
2022-09-15T13:21:23.705Z,4.13
2022-09-15T13:23:53.101Z,3.87
2022-09-15T13:26:24.009Z,3.80
2022-09-15T13:28:55.571Z,3.53
2022-09-15T13:31:42.556Z,3.20
2022-09-15T13:40:33.580Z,4.45
2022-09-15T13:43:50.862Z,4.40
2022-09-15T13:46:37.440Z,4.25
2022-09-15T13:49:28.582Z,4.40
2022-09-15T13:52:17.787Z,4.10
2022-09-15T13:55:20.845Z,4.30
2022-09-15T14:01:05.820Z,7.32
2022-09-15T14:03:41.637Z,4.50
2022-09-15T14:06:20.770Z,4.30
2022-09-15T14:08:51.777Z,4.03
2022-09-15T14:11:25.564Z,5.97
2022-09-15T14:13:53.523Z,3.90
2022-09-15T14:16:27.818Z,3.47
2022-09-15T14:18:57.572Z,3.17
2022-09-15T14:21:26.751Z,3.20
2022-09-15T14:23:55.437Z,3.20
2022-09-15T14:26:25.725Z,3.30
2022-09-15T14:28:56.618Z,4.05
2022-09-15T14:31:33.377Z,3.50
2022-09-15T14:34:01.762Z,3.17
2022-09-15T14:36:31.827Z,3.63
2022-09-15T14:39:18.920Z,3.10
2022-09-15T14:41:47.509Z,3.60
2022-09-15T14:47:28.564Z,3.58
2022-09-15T14:50:21.323Z,3.80
2022-09-15T14:52:51.851Z,3.40
2022-09-15T14:55:25.153Z,4.25
2022-09-15T14:58:11.086Z,4.30
2022-09-15T15:00:44.540Z,4.25
2022-09-15T15:03:18.388Z,3.88
2022-09-15T15:06:02.625Z,3.70
2022-09-15T15:08:40.920Z,4.00
2022-09-15T15:11:10.648Z,4.03
2022-09-15T15:13:40.548Z,4.00
2022-09-15T15:16:19.330Z,4.05
2022-09-15T15:18:46.108Z,4.30
2022-09-15T15:21:34.998Z,4.35
2022-09-15T15:24:09.642Z,4.57
2022-09-15T15:26:38.420Z,4.57
2022-09-15T15:29:08.408Z,5.63
2022-09-15T15:31:40.097Z,4.88
2022-09-15T15:34:27.293Z,4.75
2022-09-15T15:37:03.184Z,4.33
2022-09-15T15:39:29.858Z,5.20
2022-09-15T15:42:06.539Z,5.10
2022-09-15T15:44:32.970Z,4.90
2022-09-15T15:47:02.435Z,6.13
2022-09-15T15:49:32.740Z,5.70
2022-09-15T15:52:00.435Z,5.10
2022-09-15T15:54:27.493Z,4.90
2022-09-15T15:56:54.547Z,4.90
2022-09-15T15:59:21.238Z,4.63
2022-09-15T16:01:51.288Z,5.20
2022-09-15T16:04:17.752Z,4.60
2022-09-15T16:06:44.829Z,4.85
2022-09-15T16:09:14.670Z,4.55
2022-09-15T16:11:42.882Z,4.68
2022-09-15T16:14:13.445Z,4.77
2022-09-15T16:16:40.620Z,4.50
2022-09-15T16:19:08.408Z,4.60
2022-09-15T16:21:38.761Z,4.40
2022-09-15T16:24:06.219Z,7.85
2022-09-15T16:26:35.490Z,3.90
2022-09-15T16:29:02.007Z,4.43
2022-09-15T16:31:28.523Z,4.10
2022-09-15T16:33:54.974Z,4.43
2022-09-15T16:36:21.349Z,4.40
2022-09-15T16:38:47.757Z,3.60
2022-09-15T16:41:19.939Z,3.83
2022-09-15T16:43:47.384Z,3.42
2022-09-15T16:46:15.073Z,3.58
2022-09-15T16:48:43.015Z,3.38
2022-09-15T16:51:28.419Z,3.30
2022-09-15T16:53:57.230Z,3.58
2022-09-15T16:56:23.647Z,3.42
2022-09-15T16:58:54.809Z,3.40
2022-09-15T17:01:25.128Z,3.35
2022-09-15T17:03:51.568Z,3.10
2022-09-15T17:06:18.623Z,3.20
2022-09-15T17:08:45.528Z,3.10
2022-09-15T17:11:16.590Z,3.00
2022-09-15T17:13:44.349Z,3.13
2022-09-15T17:16:12.341Z,3.10
2022-09-15T17:18:38.792Z,3.08
2022-09-15T17:21:05.345Z,3.30
2022-09-15T17:23:36.714Z,3.42
2022-09-15T17:26:06.692Z,3.00
2022-09-15T17:28:34.893Z,3.10
2022-09-15T17:31:04.057Z,2.95
2022-09-15T17:33:31.850Z,2.80
2022-09-15T17:35:59.624Z,3.30
2022-09-15T17:38:26.520Z,3.30
2022-09-15T17:40:55.191Z,3.30
2022-09-15T17:43:24.333Z,3.30
2022-09-15T17:45:51.671Z,7.00
2022-09-15T17:48:18.738Z,28.50
2022-09-15T17:50:46.281Z,21.50
2022-09-15T17:53:14.904Z,34.50
2022-09-15T17:55:41.332Z,37.17
2022-09-15T17:58:08.393Z,30.88
2022-09-15T18:00:37.705Z,5.05
2022-09-15T18:03:16.827Z,30.48
2022-09-15T18:05:43.375Z,19.63
2022-09-15T18:08:09.875Z,17.02
2022-09-15T18:10:36.795Z,14.48
2022-09-15T18:13:05.219Z,11.55
2022-09-15T18:15:34.032Z,5.10
2022-09-15T18:18:04.082Z,4.80
2022-09-15T18:20:33.082Z,3.80
2022-09-15T18:23:00.225Z,4.00
2022-09-15T18:25:32.115Z,3.53
2022-09-15T18:27:59.435Z,4.30
2022-09-15T18:30:28.785Z,4.17
2022-09-15T18:32:56.718Z,3.85
2022-09-15T18:35:23.786Z,3.33
2022-09-15T18:37:57.658Z,3.15
2022-09-15T18:40:25.439Z,3.08
2022-09-15T18:42:52.471Z,4.93
2022-09-15T18:45:19.905Z,3.42
2022-09-15T18:47:48.920Z,3.30
2022-09-15T18:50:16.732Z,5.05
2022-09-15T18:52:43.520Z,5.97
2022-09-15T18:55:15.083Z,3.87
2022-09-15T18:57:42.823Z,8.20
2022-09-15T19:00:13.821Z,3.97
2022-09-15T19:02:40.562Z,3.13
2022-09-15T19:05:08.099Z,2.80
2022-09-15T19:07:34.529Z,3.00
2022-09-15T19:10:01.641Z,2.80
2022-09-15T19:12:28.104Z,3.05
2022-09-15T19:14:54.543Z,2.70
2022-09-15T19:17:21.319Z,2.35
2022-09-15T19:19:47.940Z,2.70
2022-09-15T19:22:14.372Z,2.50
2022-09-15T19:24:40.894Z,2.63
2022-09-15T19:27:08.844Z,2.75
2022-09-15T19:29:37.105Z,2.55
2022-09-15T19:32:05.941Z,2.77
2022-09-15T19:34:32.590Z,2.42
2022-09-15T19:36:59.033Z,2.83
2022-09-15T19:39:25.767Z,2.45
2022-09-15T19:41:52.320Z,2.45
2022-09-15T19:44:18.808Z,2.50
2022-09-15T19:46:47.397Z,2.47
2022-09-15T19:49:13.980Z,2.20
2022-09-15T19:51:40.475Z,2.63
2022-09-15T19:54:07.149Z,2.85
2022-09-15T19:56:34.952Z,2.90
2022-09-15T19:59:01.816Z,2.40
2022-09-15T20:01:29.791Z,2.58
2022-09-15T20:03:56.975Z,2.88
2022-09-15T20:06:32.476Z,2.55
2022-09-15T20:08:59.525Z,2.70
2022-09-15T20:11:27.738Z,2.50
2022-09-15T20:13:54.646Z,2.50
2022-09-15T20:16:23.010Z,2.42
2022-09-15T20:18:50.791Z,2.53
2022-09-15T20:21:32.427Z,2.50
2022-09-15T20:24:00.772Z,2.50
2022-09-15T20:26:27.403Z,2.50
2022-09-15T20:28:54.184Z,2.80
2022-09-15T20:31:23.587Z,2.72
2022-09-15T20:33:51.486Z,2.70
2022-09-15T20:36:28.583Z,5.47
2022-09-15T20:38:56.436Z,3.13
2022-09-15T20:41:25.151Z,2.67
2022-09-15T20:43:52.210Z,2.20
2022-09-15T20:46:21.025Z,2.30
2022-09-15T20:48:47.946Z,2.83
2022-09-15T20:51:17.646Z,2.60
2022-09-15T20:53:46.467Z,2.60
2022-09-15T20:56:14.787Z,2.60
2022-09-15T20:58:41.830Z,2.40
2022-09-15T21:01:12.595Z,2.40
2022-09-15T21:03:41.442Z,2.72
2022-09-15T21:06:11.004Z,2.55
2022-09-15T21:08:37.765Z,2.75
2022-09-15T21:11:05.885Z,2.33
2022-09-15T21:13:37.064Z,2.42
2022-09-15T21:16:07.618Z,2.60
2022-09-15T21:18:36.793Z,2.33
2022-09-15T21:21:07.676Z,2.50
2022-09-15T21:23:36.895Z,2.67
2022-09-15T21:26:06.447Z,2.50
2022-09-15T21:28:33.884Z,2.42
2022-09-15T21:31:09.422Z,2.42
2022-09-15T21:33:36.867Z,2.70
2022-09-15T21:36:04.921Z,2.30
2022-09-15T21:38:31.495Z,2.58
2022-09-15T21:40:58.159Z,2.40
2022-09-15T21:43:29.012Z,2.60
2022-09-15T21:45:56.694Z,2.40
2022-09-15T21:48:23.352Z,2.17
2022-09-15T21:50:51.162Z,2.40
2022-09-15T21:53:18.061Z,2.47
2022-09-15T21:55:44.485Z,3.08
2022-09-15T21:58:10.896Z,2.50
2022-09-15T22:00:40.018Z,2.83
2022-09-15T22:03:07.083Z,2.42
2022-09-15T22:05:33.594Z,2.40
2022-09-15T22:08:04.694Z,2.20
2022-09-15T22:10:31.659Z,2.30
2022-09-15T22:12:58.081Z,2.60
2022-09-15T22:15:24.509Z,2.30
2022-09-15T22:17:50.895Z,2.50
2022-09-15T22:20:17.484Z,2.40
2022-09-15T22:22:44.284Z,2.40
2022-09-15T22:25:11.292Z,2.20
2022-09-15T22:27:37.748Z,2.33
2022-09-15T22:30:04.558Z,2.10
2022-09-15T22:32:30.995Z,2.28
2022-09-15T22:34:57.377Z,2.47
2022-09-15T22:37:27.419Z,2.23
2022-09-15T22:40:01.346Z,2.30
2022-09-15T22:42:28.079Z,2.03
2022-09-15T22:44:54.490Z,2.20
2022-09-15T22:47:20.929Z,2.25
2022-09-15T22:49:47.422Z,2.30
2022-09-15T22:52:13.788Z,1.83
2022-09-15T22:54:40.186Z,2.28
2022-09-15T22:57:07.136Z,2.25
2022-09-15T22:59:33.636Z,2.00
2022-09-15T23:02:00.115Z,2.33
2022-09-15T23:04:26.685Z,2.67
2022-09-15T23:06:53.097Z,2.35
2022-09-15T23:09:19.498Z,2.40
2022-09-15T23:11:45.966Z,2.58
2022-09-15T23:14:17.974Z,2.43
2022-09-15T23:16:44.972Z,2.10
2022-09-15T23:19:13.292Z,2.65
2022-09-15T23:21:40.153Z,2.65
2022-09-15T23:24:06.836Z,2.40
2022-09-15T23:26:33.303Z,2.23
2022-09-15T23:28:59.721Z,2.00
2022-09-15T23:31:26.269Z,2.45
2022-09-15T23:33:52.745Z,2.33
2022-09-15T23:36:19.574Z,2.50
2022-09-15T23:38:47.204Z,2.30
2022-09-15T23:41:14.968Z,2.10
2022-09-15T23:43:41.602Z,2.10
2022-09-15T23:46:08.334Z,2.10
2022-09-15T23:48:35.008Z,2.20
2022-09-15T23:51:02.146Z,2.40
2022-09-15T23:53:29.250Z,2.28
2022-09-15T23:55:55.812Z,2.28
2022-09-15T23:58:22.246Z,2.42
